sensor_id;sensor_type;location;lat;lon;timestamp;P1;durP1;ratioP1;P2;durP2;ratioP2
68140;SDS011;54941;52.220;104.306;2023-04-03T00:01:39;5.20;;;2.22;;
68140;SDS011;54941;52.220;104.306;2023-04-03T00:04:07;3.25;;;1.95;;
68140;SDS011;54941;52.220;104.306;2023-04-03T00:06:34;4.68;;;2.55;;
68140;SDS011;54941;52.220;104.306;2023-04-03T00:09:02;5.50;;;2.25;;
68140;SDS011;54941;52.220;104.306;2023-04-03T00:11:28;5.05;;;2.17;;
68140;SDS011;54941;52.220;104.306;2023-04-03T00:13:54;4.97;;;2.20;;
68140;SDS011;54941;52.220;104.306;2023-04-03T00:16:21;5.63;;;2.10;;
68140;SDS011;54941;52.220;104.306;2023-04-03T00:18:47;4.15;;;2.05;;
68140;SDS011;54941;52.220;104.306;2023-04-03T00:21:15;5.68;;;2.42;;
68140;SDS011;54941;52.220;104.306;2023-04-03T00:23:42;4.22;;;1.80;;
68140;SDS011;54941;52.220;104.306;2023-04-03T00:26:10;5.13;;;1.73;;
68140;SDS011;54941;52.220;104.306;2023-04-03T00:28:38;3.72;;;1.58;;
68140;SDS011;54941;52.220;104.306;2023-04-03T00:31:04;4.63;;;2.17;;
68140;SDS011;54941;52.220;104.306;2023-04-03T00:33:31;6.63;;;2.83;;
68140;SDS011;54941;52.220;104.306;2023-04-03T00:35:57;8.85;;;3.03;;
68140;SDS011;54941;52.220;104.306;2023-04-03T00:38:23;10.25;;;2.72;;
68140;SDS011;54941;52.220;104.306;2023-04-03T00:40:50;8.35;;;2.92;;
68140;SDS011;54941;52.220;104.306;2023-04-03T00:43:18;6.70;;;2.88;;
68140;SDS011;54941;52.220;104.306;2023-04-03T00:45:46;9.48;;;2.72;;
68140;SDS011;54941;52.220;104.306;2023-04-03T00:48:15;8.00;;;2.33;;
68140;SDS011;54941;52.220;104.306;2023-04-03T00:50:45;12.90;;;3.00;;
68140;SDS011;54941;52.220;104.306;2023-04-03T00:53:13;5.80;;;2.67;;
68140;SDS011;54941;52.220;104.306;2023-04-03T00:55:44;10.32;;;2.65;;
68140;SDS011;54941;52.220;104.306;2023-04-03T00:58:12;6.45;;;2.22;;
68140;SDS011;54941;52.220;104.306;2023-04-03T01:00:43;9.35;;;3.08;;
68140;SDS011;54941;52.220;104.306;2023-04-03T01:03:13;6.80;;;2.83;;
68140;SDS011;54941;52.220;104.306;2023-04-03T01:05:40;8.02;;;2.80;;
68140;SDS011;54941;52.220;104.306;2023-04-03T01:08:06;14.73;;;3.22;;
68140;SDS011;54941;52.220;104.306;2023-04-03T01:10:33;6.82;;;2.97;;
68140;SDS011;54941;52.220;104.306;2023-04-03T01:12:59;6.32;;;2.90;;
68140;SDS011;54941;52.220;104.306;2023-04-03T01:15:26;7.07;;;3.15;;
68140;SDS011;54941;52.220;104.306;2023-04-03T01:17:55;6.78;;;2.92;;
68140;SDS011;54941;52.220;104.306;2023-04-03T01:23:30;7.38;;;2.83;;
68140;SDS011;54941;52.220;104.306;2023-04-03T01:26:02;9.80;;;2.80;;
68140;SDS011;54941;52.220;104.306;2023-04-03T01:28:29;7.22;;;3.28;;
68140;SDS011;54941;52.220;104.306;2023-04-03T01:30:59;10.20;;;4.97;;
68140;SDS011;54941;52.220;104.306;2023-04-03T01:33:33;8.40;;;3.78;;
68140;SDS011;54941;52.220;104.306;2023-04-03T01:36:00;8.27;;;3.58;;
68140;SDS011;54941;52.220;104.306;2023-04-03T01:40:56;6.80;;;2.78;;
68140;SDS011;54941;52.220;104.306;2023-04-03T01:43:22;6.03;;;3.10;;
68140;SDS011;54941;52.220;104.306;2023-04-03T01:48:18;7.30;;;2.83;;
68140;SDS011;54941;52.220;104.306;2023-04-03T01:50:45;6.65;;;2.40;;
68140;SDS011;54941;52.220;104.306;2023-04-03T01:53:12;7.05;;;3.25;;
68140;SDS011;54941;52.220;104.306;2023-04-03T01:55:39;8.45;;;2.78;;
68140;SDS011;54941;52.220;104.306;2023-04-03T01:58:07;5.57;;;2.55;;
68140;SDS011;54941;52.220;104.306;2023-04-03T02:00:34;7.53;;;2.78;;
68140;SDS011;54941;52.220;104.306;2023-04-03T02:03:00;7.22;;;2.70;;
68140;SDS011;54941;52.220;104.306;2023-04-03T02:05:27;5.28;;;2.28;;
68140;SDS011;54941;52.220;104.306;2023-04-03T02:07:55;7.53;;;2.42;;
68140;SDS011;54941;52.220;104.306;2023-04-03T02:10:23;8.88;;;2.97;;
68140;SDS011;54941;52.220;104.306;2023-04-03T02:12:49;7.40;;;2.40;;
68140;SDS011;54941;52.220;104.306;2023-04-03T02:15:16;7.38;;;2.85;;
68140;SDS011;54941;52.220;104.306;2023-04-03T02:17:42;8.73;;;2.65;;
68140;SDS011;54941;52.220;104.306;2023-04-03T02:20:09;6.25;;;2.45;;
68140;SDS011;54941;52.220;104.306;2023-04-03T02:22:36;4.90;;;2.13;;
68140;SDS011;54941;52.220;104.306;2023-04-03T02:25:05;6.63;;;2.15;;
68140;SDS011;54941;52.220;104.306;2023-04-03T02:27:31;5.80;;;2.55;;
68140;SDS011;54941;52.220;104.306;2023-04-03T02:29:58;2.92;;;1.77;;
68140;SDS011;54941;52.220;104.306;2023-04-03T02:32:24;15.10;;;2.25;;
68140;SDS011;54941;52.220;104.306;2023-04-03T02:34:51;5.15;;;1.98;;
68140;SDS011;54941;52.220;104.306;2023-04-03T02:37:17;6.93;;;2.20;;
68140;SDS011;54941;52.220;104.306;2023-04-03T02:39:43;6.13;;;2.08;;
68140;SDS011;54941;52.220;104.306;2023-04-03T02:42:11;3.80;;;1.52;;
68140;SDS011;54941;52.220;104.306;2023-04-03T02:44:38;5.70;;;1.92;;
68140;SDS011;54941;52.220;104.306;2023-04-03T02:47:04;6.20;;;2.38;;
68140;SDS011;54941;52.220;104.306;2023-04-03T02:49:30;11.85;;;2.45;;
68140;SDS011;54941;52.220;104.306;2023-04-03T02:51:57;8.48;;;2.63;;
68140;SDS011;54941;52.220;104.306;2023-04-03T02:54:23;5.38;;;2.50;;
68140;SDS011;54941;52.220;104.306;2023-04-03T02:56:50;3.47;;;1.65;;
68140;SDS011;54941;52.220;104.306;2023-04-03T02:59:18;3.58;;;1.60;;
68140;SDS011;54941;52.220;104.306;2023-04-03T03:01:44;3.53;;;1.42;;
68140;SDS011;54941;52.220;104.306;2023-04-03T03:04:10;3.45;;;1.25;;
68140;SDS011;54941;52.220;104.306;2023-04-03T03:06:37;2.95;;;1.50;;
68140;SDS011;54941;52.220;104.306;2023-04-03T03:09:03;9.85;;;2.20;;
68140;SDS011;54941;52.220;104.306;2023-04-03T03:11:30;3.13;;;1.40;;
68140;SDS011;54941;52.220;104.306;2023-04-03T03:13:56;4.68;;;1.67;;
68140;SDS011;54941;52.220;104.306;2023-04-03T03:16:24;3.40;;;1.38;;
68140;SDS011;54941;52.220;104.306;2023-04-03T03:18:51;3.72;;;1.52;;
68140;SDS011;54941;52.220;104.306;2023-04-03T03:21:17;5.60;;;1.40;;
68140;SDS011;54941;52.220;104.306;2023-04-03T03:23:43;3.35;;;1.33;;
68140;SDS011;54941;52.220;104.306;2023-04-03T03:26:10;2.72;;;1.20;;
68140;SDS011;54941;52.220;104.306;2023-04-03T03:28:38;2.30;;;1.30;;
68140;SDS011;54941;52.220;104.306;2023-04-03T03:31:05;4.22;;;1.80;;
68140;SDS011;54941;52.220;104.306;2023-04-03T03:33:34;2.95;;;1.27;;
68140;SDS011;54941;52.220;104.306;2023-04-03T03:36:00;3.28;;;1.48;;
68140;SDS011;54941;52.220;104.306;2023-04-03T03:38:29;3.55;;;1.35;;
68140;SDS011;54941;52.220;104.306;2023-04-03T03:40:55;2.70;;;1.10;;
68140;SDS011;54941;52.220;104.306;2023-04-03T03:43:22;3.75;;;1.33;;
68140;SDS011;54941;52.220;104.306;2023-04-03T03:45:49;4.38;;;1.70;;
68140;SDS011;54941;52.220;104.306;2023-04-03T03:48:16;3.17;;;1.20;;
68140;SDS011;54941;52.220;104.306;2023-04-03T03:50:44;4.93;;;1.17;;
68140;SDS011;54941;52.220;104.306;2023-04-03T03:53:11;1.95;;;0.88;;
68140;SDS011;54941;52.220;104.306;2023-04-03T03:55:37;2.75;;;1.30;;
68140;SDS011;54941;52.220;104.306;2023-04-03T03:58:03;5.00;;;1.42;;
68140;SDS011;54941;52.220;104.306;2023-04-03T04:00:30;5.47;;;1.20;;
68140;SDS011;54941;52.220;104.306;2023-04-03T04:02:56;3.17;;;1.30;;
68140;SDS011;54941;52.220;104.306;2023-04-03T04:05:23;3.22;;;1.17;;
68140;SDS011;54941;52.220;104.306;2023-04-03T04:07:50;7.65;;;1.75;;
68140;SDS011;54941;52.220;104.306;2023-04-03T04:10:17;3.72;;;1.60;;
68140;SDS011;54941;52.220;104.306;2023-04-03T04:12:45;7.03;;;1.90;;
68140;SDS011;54941;52.220;104.306;2023-04-03T04:15:12;5.72;;;2.10;;
68140;SDS011;54941;52.220;104.306;2023-04-03T04:17:38;3.38;;;1.60;;
68140;SDS011;54941;52.220;104.306;2023-04-03T04:20:07;6.53;;;2.25;;
68140;SDS011;54941;52.220;104.306;2023-04-03T04:22:34;3.42;;;1.55;;
68140;SDS011;54941;52.220;104.306;2023-04-03T04:25:02;6.97;;;2.50;;
68140;SDS011;54941;52.220;104.306;2023-04-03T04:27:29;6.80;;;2.80;;
68140;SDS011;54941;52.220;104.306;2023-04-03T04:29:56;5.05;;;2.50;;
68140;SDS011;54941;52.220;104.306;2023-04-03T04:32:22;5.40;;;2.35;;
68140;SDS011;54941;52.220;104.306;2023-04-03T04:34:48;10.07;;;2.70;;
68140;SDS011;54941;52.220;104.306;2023-04-03T04:37:15;4.32;;;1.23;;
68140;SDS011;54941;52.220;104.306;2023-04-03T04:39:41;2.40;;;0.70;;
68140;SDS011;54941;52.220;104.306;2023-04-03T04:42:10;2.35;;;0.82;;
68140;SDS011;54941;52.220;104.306;2023-04-03T04:44:37;2.03;;;0.98;;
68140;SDS011;54941;52.220;104.306;2023-04-03T04:47:03;3.58;;;1.45;;
68140;SDS011;54941;52.220;104.306;2023-04-03T04:49:30;10.65;;;1.75;;
68140;SDS011;54941;52.220;104.306;2023-04-03T04:51:56;6.80;;;2.00;;
68140;SDS011;54941;52.220;104.306;2023-04-03T04:54:25;8.15;;;2.53;;
68140;SDS011;54941;52.220;104.306;2023-04-03T04:56:51;7.20;;;2.30;;
68140;SDS011;54941;52.220;104.306;2023-04-03T04:59:19;10.90;;;2.90;;
68140;SDS011;54941;52.220;104.306;2023-04-03T05:01:48;6.38;;;1.20;;
68140;SDS011;54941;52.220;104.306;2023-04-03T05:04:15;5.35;;;1.30;;
68140;SDS011;54941;52.220;104.306;2023-04-03T05:06:41;2.33;;;0.75;;
68140;SDS011;54941;52.220;104.306;2023-04-03T05:09:10;7.28;;;1.45;;
68140;SDS011;54941;52.220;104.306;2023-04-03T05:11:37;3.20;;;0.80;;
68140;SDS011;54941;52.220;104.306;2023-04-03T05:14:03;4.20;;;0.90;;
68140;SDS011;54941;52.220;104.306;2023-04-03T05:18:59;5.65;;;0.80;;
68140;SDS011;54941;52.220;104.306;2023-04-03T05:21:26;2.10;;;0.70;;
68140;SDS011;54941;52.220;104.306;2023-04-03T05:23:52;5.00;;;1.00;;
68140;SDS011;54941;52.220;104.306;2023-04-03T05:26:18;5.05;;;0.70;;
68140;SDS011;54941;52.220;104.306;2023-04-03T05:28:45;4.53;;;1.05;;
68140;SDS011;54941;52.220;104.306;2023-04-03T05:31:12;2.35;;;1.00;;
68140;SDS011;54941;52.220;104.306;2023-04-03T05:33:43;5.05;;;1.38;;
68140;SDS011;54941;52.220;104.306;2023-04-03T05:36:09;3.03;;;0.80;;
68140;SDS011;54941;52.220;104.306;2023-04-03T05:38:37;3.20;;;1.42;;
68140;SDS011;54941;52.220;104.306;2023-04-03T05:41:04;7.07;;;1.50;;
68140;SDS011;54941;52.220;104.306;2023-04-03T05:43:33;4.47;;;1.45;;
68140;SDS011;54941;52.220;104.306;2023-04-03T05:45:59;2.13;;;0.85;;
68140;SDS011;54941;52.220;104.306;2023-04-03T05:48:28;4.53;;;1.85;;
68140;SDS011;54941;52.220;104.306;2023-04-03T05:50:56;4.78;;;1.40;;
68140;SDS011;54941;52.220;104.306;2023-04-03T05:53:24;5.07;;;0.98;;
68140;SDS011;54941;52.220;104.306;2023-04-03T05:55:53;7.07;;;0.98;;
68140;SDS011;54941;52.220;104.306;2023-04-03T05:58:20;1.75;;;0.90;;
68140;SDS011;54941;52.220;104.306;2023-04-03T06:00:47;2.00;;;1.00;;
68140;SDS011;54941;52.220;104.306;2023-04-03T06:03:13;3.83;;;0.90;;
68140;SDS011;54941;52.220;104.306;2023-04-03T06:05:39;2.55;;;0.90;;
68140;SDS011;54941;52.220;104.306;2023-04-03T06:08:07;1.58;;;0.75;;
68140;SDS011;54941;52.220;104.306;2023-04-03T06:10:34;1.77;;;0.50;;
68140;SDS011;54941;52.220;104.306;2023-04-03T06:13:00;1.45;;;0.65;;
68140;SDS011;54941;52.220;104.306;2023-04-03T06:15:27;3.53;;;0.88;;
68140;SDS011;54941;52.220;104.306;2023-04-03T06:17:53;4.55;;;0.88;;
68140;SDS011;54941;52.220;104.306;2023-04-03T06:20:20;3.35;;;0.80;;
68140;SDS011;54941;52.220;104.306;2023-04-03T06:22:46;1.67;;;0.57;;
68140;SDS011;54941;52.220;104.306;2023-04-03T06:25:14;2.53;;;0.70;;
68140;SDS011;54941;52.220;104.306;2023-04-03T06:27:41;2.72;;;0.95;;
68140;SDS011;54941;52.220;104.306;2023-04-03T06:30:07;2.45;;;0.93;;
68140;SDS011;54941;52.220;104.306;2023-04-03T06:32:34;6.72;;;1.83;;
68140;SDS011;54941;52.220;104.306;2023-04-03T06:35:01;3.88;;;1.15;;
68140;SDS011;54941;52.220;104.306;2023-04-03T06:37:27;4.70;;;1.50;;
68140;SDS011;54941;52.220;104.306;2023-04-03T06:39:54;5.07;;;1.27;;
68140;SDS011;54941;52.220;104.306;2023-04-03T06:42:22;5.25;;;1.38;;
68140;SDS011;54941;52.220;104.306;2023-04-03T06:44:48;4.57;;;1.20;;
68140;SDS011;54941;52.220;104.306;2023-04-03T06:47:15;3.97;;;1.20;;
68140;SDS011;54941;52.220;104.306;2023-04-03T06:49:42;3.53;;;0.88;;
68140;SDS011;54941;52.220;104.306;2023-04-03T06:52:09;3.10;;;1.15;;
68140;SDS011;54941;52.220;104.306;2023-04-03T06:54:35;2.28;;;0.70;;
68140;SDS011;54941;52.220;104.306;2023-04-03T06:57:02;5.63;;;0.90;;
68140;SDS011;54941;52.220;104.306;2023-04-03T06:59:30;3.83;;;0.95;;
68140;SDS011;54941;52.220;104.306;2023-04-03T07:01:57;2.45;;;0.93;;
68140;SDS011;54941;52.220;104.306;2023-04-03T07:04:23;3.13;;;1.00;;
68140;SDS011;54941;52.220;104.306;2023-04-03T07:06:49;4.65;;;1.20;;
68140;SDS011;54941;52.220;104.306;2023-04-03T07:09:16;3.72;;;1.30;;
68140;SDS011;54941;52.220;104.306;2023-04-03T07:11:42;5.68;;;1.40;;
68140;SDS011;54941;52.220;104.306;2023-04-03T07:14:08;6.03;;;0.93;;
68140;SDS011;54941;52.220;104.306;2023-04-03T07:16:36;3.25;;;1.10;;
68140;SDS011;54941;52.220;104.306;2023-04-03T07:19:03;3.60;;;1.13;;
68140;SDS011;54941;52.220;104.306;2023-04-03T07:21:29;2.35;;;0.90;;
68140;SDS011;54941;52.220;104.306;2023-04-03T07:23:55;3.70;;;1.00;;
68140;SDS011;54941;52.220;104.306;2023-04-03T07:26:22;5.47;;;1.15;;
68140;SDS011;54941;52.220;104.306;2023-04-03T07:28:48;3.45;;;1.08;;
68140;SDS011;54941;52.220;104.306;2023-04-03T07:31:15;4.00;;;1.13;;
68140;SDS011;54941;52.220;104.306;2023-04-03T07:33:44;3.47;;;1.00;;
68140;SDS011;54941;52.220;104.306;2023-04-03T07:36:11;2.00;;;0.75;;
68140;SDS011;54941;52.220;104.306;2023-04-03T07:38:42;6.65;;;1.20;;
68140;SDS011;54941;52.220;104.306;2023-04-03T07:41:10;2.80;;;1.10;;
68140;SDS011;54941;52.220;104.306;2023-04-03T07:43:39;2.63;;;0.63;;
68140;SDS011;54941;52.220;104.306;2023-04-03T07:46:05;5.00;;;1.10;;
68140;SDS011;54941;52.220;104.306;2023-04-03T07:48:32;6.38;;;1.45;;
68140;SDS011;54941;52.220;104.306;2023-04-03T07:51:00;6.25;;;1.52;;
68140;SDS011;54941;52.220;104.306;2023-04-03T07:53:27;4.45;;;1.08;;
68140;SDS011;54941;52.220;104.306;2023-04-03T07:55:54;3.72;;;1.50;;
68140;SDS011;54941;52.220;104.306;2023-04-03T07:58:22;2.47;;;0.70;;
68140;SDS011;54941;52.220;104.306;2023-04-03T08:00:48;2.45;;;1.00;;
68140;SDS011;54941;52.220;104.306;2023-04-03T08:03:14;3.63;;;0.65;;
68140;SDS011;54941;52.220;104.306;2023-04-03T08:05:41;4.30;;;1.65;;
68140;SDS011;54941;52.220;104.306;2023-04-03T08:08:10;3.80;;;1.23;;
68140;SDS011;54941;52.220;104.306;2023-04-03T08:10:37;5.00;;;1.15;;
68140;SDS011;54941;52.220;104.306;2023-04-03T08:13:04;5.28;;;1.10;;
68140;SDS011;54941;52.220;104.306;2023-04-03T08:15:30;8.30;;;1.00;;
68140;SDS011;54941;52.220;104.306;2023-04-03T08:17:57;2.25;;;0.90;;
68140;SDS011;54941;52.220;104.306;2023-04-03T08:20:24;3.78;;;1.17;;
68140;SDS011;54941;52.220;104.306;2023-04-03T08:22:50;3.22;;;0.90;;
68140;SDS011;54941;52.220;104.306;2023-04-03T08:25:18;2.35;;;0.65;;
68140;SDS011;54941;52.220;104.306;2023-04-03T08:27:45;4.78;;;1.20;;
68140;SDS011;54941;52.220;104.306;2023-04-03T08:30:12;2.60;;;1.00;;
68140;SDS011;54941;52.220;104.306;2023-04-03T08:32:39;2.65;;;1.00;;
68140;SDS011;54941;52.220;104.306;2023-04-03T08:35:05;3.78;;;1.00;;
68140;SDS011;54941;52.220;104.306;2023-04-03T08:37:34;3.22;;;0.85;;
68140;SDS011;54941;52.220;104.306;2023-04-03T08:40:01;3.95;;;1.00;;
68140;SDS011;54941;52.220;104.306;2023-04-03T08:42:34;3.33;;;1.13;;
68140;SDS011;54941;52.220;104.306;2023-04-03T08:45:08;2.80;;;1.02;;
68140;SDS011;54941;52.220;104.306;2023-04-03T08:47:38;2.58;;;0.90;;
68140;SDS011;54941;52.220;104.306;2023-04-03T08:50:11;1.77;;;0.80;;
68140;SDS011;54941;52.220;104.306;2023-04-03T08:52:42;2.88;;;1.08;;
68140;SDS011;54941;52.220;104.306;2023-04-03T08:55:14;9.02;;;2.42;;
68140;SDS011;54941;52.220;104.306;2023-04-03T08:57:50;10.85;;;3.00;;
68140;SDS011;54941;52.220;104.306;2023-04-03T09:00:22;4.88;;;1.38;;
68140;SDS011;54941;52.220;104.306;2023-04-03T09:02:51;6.38;;;1.17;;
68140;SDS011;54941;52.220;104.306;2023-04-03T09:05:19;5.10;;;1.13;;
68140;SDS011;54941;52.220;104.306;2023-04-03T09:07:56;4.97;;;1.10;;
68140;SDS011;54941;52.220;104.306;2023-04-03T09:10:27;3.42;;;1.33;;
68140;SDS011;54941;52.220;104.306;2023-04-03T09:15:26;2.40;;;0.52;;
68140;SDS011;54941;52.220;104.306;2023-04-03T09:17:56;6.68;;;1.00;;
68140;SDS011;54941;52.220;104.306;2023-04-03T09:20:31;2.38;;;1.02;;
68140;SDS011;54941;52.220;104.306;2023-04-03T09:23:12;3.45;;;1.00;;
68140;SDS011;54941;52.220;104.306;2023-04-03T09:25:45;3.75;;;1.38;;
68140;SDS011;54941;52.220;104.306;2023-04-03T09:28:13;9.38;;;2.00;;
68140;SDS011;54941;52.220;104.306;2023-04-03T09:30:39;3.63;;;1.13;;
68140;SDS011;54941;52.220;104.306;2023-04-03T09:33:06;3.50;;;0.90;;
68140;SDS011;54941;52.220;104.306;2023-04-03T09:35:32;2.92;;;1.08;;
68140;SDS011;54941;52.220;104.306;2023-04-03T09:38:00;4.47;;;1.33;;
68140;SDS011;54941;52.220;104.306;2023-04-03T09:40:40;6.00;;;1.10;;
68140;SDS011;54941;52.220;104.306;2023-04-03T09:45:53;6.90;;;1.35;;
68140;SDS011;54941;52.220;104.306;2023-04-03T09:48:20;6.82;;;1.27;;
68140;SDS011;54941;52.220;104.306;2023-04-03T09:50:53;5.32;;;1.25;;
68140;SDS011;54941;52.220;104.306;2023-04-03T09:53:26;5.55;;;1.33;;
68140;SDS011;54941;52.220;104.306;2023-04-03T09:56:20;5.35;;;1.63;;
68140;SDS011;54941;52.220;104.306;2023-04-03T09:58:51;4.90;;;1.75;;
68140;SDS011;54941;52.220;104.306;2023-04-03T10:01:32;6.85;;;1.48;;
68140;SDS011;54941;52.220;104.306;2023-04-03T10:04:03;5.07;;;1.65;;
68140;SDS011;54941;52.220;104.306;2023-04-03T10:06:37;7.50;;;2.20;;
68140;SDS011;54941;52.220;104.306;2023-04-03T10:09:06;8.07;;;2.22;;
68140;SDS011;54941;52.220;104.306;2023-04-03T10:11:49;9.15;;;1.90;;
68140;SDS011;54941;52.220;104.306;2023-04-03T10:14:25;7.07;;;2.42;;
68140;SDS011;54941;52.220;104.306;2023-04-03T10:16:52;5.03;;;1.75;;
68140;SDS011;54941;52.220;104.306;2023-04-03T10:19:31;6.85;;;2.20;;
68140;SDS011;54941;52.220;104.306;2023-04-03T10:22:02;5.15;;;1.52;;
68140;SDS011;54941;52.220;104.306;2023-04-03T10:24:36;6.57;;;1.52;;
68140;SDS011;54941;52.220;104.306;2023-04-03T10:27:10;4.47;;;1.30;;
68140;SDS011;54941;52.220;104.306;2023-04-03T10:29:45;10.60;;;1.45;;
68140;SDS011;54941;52.220;104.306;2023-04-03T10:32:28;4.93;;;1.25;;
68140;SDS011;54941;52.220;104.306;2023-04-03T10:35:11;4.53;;;1.90;;
68140;SDS011;54941;52.220;104.306;2023-04-03T10:37:47;4.25;;;1.30;;
68140;SDS011;54941;52.220;104.306;2023-04-03T10:40:25;4.47;;;1.63;;
68140;SDS011;54941;52.220;104.306;2023-04-03T10:42:58;5.47;;;1.92;;
68140;SDS011;54941;52.220;104.306;2023-04-03T10:45:38;3.78;;;1.13;;
68140;SDS011;54941;52.220;104.306;2023-04-03T10:48:26;6.45;;;1.30;;
68140;SDS011;54941;52.220;104.306;2023-04-03T10:51:06;4.38;;;1.70;;
68140;SDS011;54941;52.220;104.306;2023-04-03T10:53:41;4.32;;;1.65;;
68140;SDS011;54941;52.220;104.306;2023-04-03T10:56:15;3.88;;;1.27;;
68140;SDS011;54941;52.220;104.306;2023-04-03T10:58:48;4.53;;;1.70;;
68140;SDS011;54941;52.220;104.306;2023-04-03T11:01:21;9.50;;;2.33;;
68140;SDS011;54941;52.220;104.306;2023-04-03T11:03:52;8.13;;;1.65;;
68140;SDS011;54941;52.220;104.306;2023-04-03T11:06:22;5.85;;;1.67;;
68140;SDS011;54941;52.220;104.306;2023-04-03T11:08:51;4.55;;;1.60;;
68140;SDS011;54941;52.220;104.306;2023-04-03T11:11:24;5.85;;;1.80;;
68140;SDS011;54941;52.220;104.306;2023-04-03T11:13:54;4.05;;;2.05;;
68140;SDS011;54941;52.220;104.306;2023-04-03T11:16:28;12.85;;;1.77;;
68140;SDS011;54941;52.220;104.306;2023-04-03T11:18:57;6.13;;;1.75;;
68140;SDS011;54941;52.220;104.306;2023-04-03T11:21:28;10.30;;;1.70;;
68140;SDS011;54941;52.220;104.306;2023-04-03T11:24:00;5.30;;;1.92;;
68140;SDS011;54941;52.220;104.306;2023-04-03T11:26:31;4.22;;;1.40;;
68140;SDS011;54941;52.220;104.306;2023-04-03T11:29:05;8.02;;;1.85;;
68140;SDS011;54941;52.220;104.306;2023-04-03T11:31:41;6.40;;;1.67;;
68140;SDS011;54941;52.220;104.306;2023-04-03T11:34:31;4.28;;;1.90;;
68140;SDS011;54941;52.220;104.306;2023-04-03T11:37:00;7.72;;;2.45;;
68140;SDS011;54941;52.220;104.306;2023-04-03T11:39:31;8.40;;;1.83;;
68140;SDS011;54941;52.220;104.306;2023-04-03T11:44:50;6.32;;;1.70;;
68140;SDS011;54941;52.220;104.306;2023-04-03T11:53:25;7.25;;;1.60;;
68140;SDS011;54941;52.220;104.306;2023-04-03T11:55:58;9.02;;;1.80;;
68140;SDS011;54941;52.220;104.306;2023-04-03T11:58:26;10.38;;;2.10;;
68140;SDS011;54941;52.220;104.306;2023-04-03T12:01:07;6.80;;;1.90;;
68140;SDS011;54941;52.220;104.306;2023-04-03T12:09:15;19.27;;;7.43;;
68140;SDS011;54941;52.220;104.306;2023-04-03T12:11:50;17.45;;;6.93;;
68140;SDS011;54941;52.220;104.306;2023-04-03T12:14:17;14.93;;;6.95;;
68140;SDS011;54941;52.220;104.306;2023-04-03T12:16:47;12.05;;;3.72;;
68140;SDS011;54941;52.220;104.306;2023-04-03T12:22:07;8.65;;;2.25;;
68140;SDS011;54941;52.220;104.306;2023-04-03T12:24:45;6.72;;;2.20;;
68140;SDS011;54941;52.220;104.306;2023-04-03T12:27:16;7.47;;;2.35;;
68140;SDS011;54941;52.220;104.306;2023-04-03T12:30:06;9.13;;;2.17;;
68140;SDS011;54941;52.220;104.306;2023-04-03T12:32:58;11.00;;;2.20;;
68140;SDS011;54941;52.220;104.306;2023-04-03T12:35:40;11.30;;;2.53;;
68140;SDS011;54941;52.220;104.306;2023-04-03T12:38:23;9.80;;;2.63;;
68140;SDS011;54941;52.220;104.306;2023-04-03T12:41:10;12.35;;;3.05;;
68140;SDS011;54941;52.220;104.306;2023-04-03T12:43:48;6.68;;;1.77;;
68140;SDS011;54941;52.220;104.306;2023-04-03T12:46:26;7.20;;;1.92;;
68140;SDS011;54941;52.220;104.306;2023-04-03T12:49:00;5.75;;;1.70;;
68140;SDS011;54941;52.220;104.306;2023-04-03T12:51:28;5.55;;;2.17;;
68140;SDS011;54941;52.220;104.306;2023-04-03T12:54:01;7.25;;;1.75;;
68140;SDS011;54941;52.220;104.306;2023-04-03T12:56:36;4.78;;;1.67;;
68140;SDS011;54941;52.220;104.306;2023-04-03T13:01:53;4.32;;;1.13;;
68140;SDS011;54941;52.220;104.306;2023-04-03T13:04:21;3.00;;;0.95;;
68140;SDS011;54941;52.220;104.306;2023-04-03T13:06:48;4.18;;;1.27;;
68140;SDS011;54941;52.220;104.306;2023-04-03T13:09:22;1.50;;;0.70;;
68140;SDS011;54941;52.220;104.306;2023-04-03T13:11:53;4.75;;;1.70;;
68140;SDS011;54941;52.220;104.306;2023-04-03T13:14:24;2.38;;;0.95;;
68140;SDS011;54941;52.220;104.306;2023-04-03T13:16:55;3.47;;;1.00;;
68140;SDS011;54941;52.220;104.306;2023-04-03T13:19:22;3.70;;;1.00;;
68140;SDS011;54941;52.220;104.306;2023-04-03T13:21:53;4.75;;;1.85;;
68140;SDS011;54941;52.220;104.306;2023-04-03T13:24:23;3.60;;;1.10;;
68140;SDS011;54941;52.220;104.306;2023-04-03T13:26:52;1.90;;;1.02;;
68140;SDS011;54941;52.220;104.306;2023-04-03T13:29:21;3.72;;;1.38;;
68140;SDS011;54941;52.220;104.306;2023-04-03T13:31:52;3.70;;;1.30;;
68140;SDS011;54941;52.220;104.306;2023-04-03T13:34:20;4.82;;;1.00;;
68140;SDS011;54941;52.220;104.306;2023-04-03T13:36:54;1.90;;;0.98;;
68140;SDS011;54941;52.220;104.306;2023-04-03T13:39:23;3.97;;;1.10;;
68140;SDS011;54941;52.220;104.306;2023-04-03T13:41:53;2.97;;;1.60;;
68140;SDS011;54941;52.220;104.306;2023-04-03T13:44:28;5.82;;;1.27;;
68140;SDS011;54941;52.220;104.306;2023-04-03T13:47:13;3.35;;;1.33;;
68140;SDS011;54941;52.220;104.306;2023-04-03T13:49:44;2.35;;;1.20;;
68140;SDS011;54941;52.220;104.306;2023-04-03T13:52:24;3.55;;;1.10;;
68140;SDS011;54941;52.220;104.306;2023-04-03T13:54:54;5.82;;;1.98;;
68140;SDS011;54941;52.220;104.306;2023-04-03T13:57:24;7.63;;;1.90;;
68140;SDS011;54941;52.220;104.306;2023-04-03T13:59:51;6.10;;;2.60;;
68140;SDS011;54941;52.220;104.306;2023-04-03T14:02:20;3.63;;;1.50;;
68140;SDS011;54941;52.220;104.306;2023-04-03T14:04:50;4.18;;;0.98;;
68140;SDS011;54941;52.220;104.306;2023-04-03T14:07:18;3.42;;;1.13;;
68140;SDS011;54941;52.220;104.306;2023-04-03T14:09:45;3.65;;;1.20;;
68140;SDS011;54941;52.220;104.306;2023-04-03T14:12:13;3.25;;;1.08;;
68140;SDS011;54941;52.220;104.306;2023-04-03T14:14:44;3.40;;;0.90;;
68140;SDS011;54941;52.220;104.306;2023-04-03T14:17:14;2.30;;;0.90;;
68140;SDS011;54941;52.220;104.306;2023-04-03T14:19:42;2.85;;;0.90;;
68140;SDS011;54941;52.220;104.306;2023-04-03T14:22:12;4.38;;;1.50;;
68140;SDS011;54941;52.220;104.306;2023-04-03T14:24:44;2.15;;;0.98;;
68140;SDS011;54941;52.220;104.306;2023-04-03T14:27:15;1.85;;;0.85;;
68140;SDS011;54941;52.220;104.306;2023-04-03T14:29:46;3.13;;;1.02;;
68140;SDS011;54941;52.220;104.306;2023-04-03T14:32:15;3.58;;;0.90;;
68140;SDS011;54941;52.220;104.306;2023-04-03T14:34:43;2.97;;;1.13;;
68140;SDS011;54941;52.220;104.306;2023-04-03T14:37:13;2.50;;;1.00;;
68140;SDS011;54941;52.220;104.306;2023-04-03T14:39:42;3.17;;;1.17;;
68140;SDS011;54941;52.220;104.306;2023-04-03T14:42:12;3.22;;;1.10;;
68140;SDS011;54941;52.220;104.306;2023-04-03T14:44:40;4.38;;;0.93;;
68140;SDS011;54941;52.220;104.306;2023-04-03T14:47:10;4.75;;;1.00;;
68140;SDS011;54941;52.220;104.306;2023-04-03T14:49:38;3.03;;;1.10;;
68140;SDS011;54941;52.220;104.306;2023-04-03T14:52:04;3.28;;;1.23;;
68140;SDS011;54941;52.220;104.306;2023-04-03T14:54:30;2.95;;;1.10;;
68140;SDS011;54941;52.220;104.306;2023-04-03T14:56:58;1.88;;;0.80;;
68140;SDS011;54941;52.220;104.306;2023-04-03T14:59:26;4.57;;;0.95;;
68140;SDS011;54941;52.220;104.306;2023-04-03T15:01:53;2.67;;;0.90;;
68140;SDS011;54941;52.220;104.306;2023-04-03T15:04:21;3.22;;;1.20;;
68140;SDS011;54941;52.220;104.306;2023-04-03T15:06:48;2.67;;;0.80;;
68140;SDS011;54941;52.220;104.306;2023-04-03T15:09:18;2.20;;;0.88;;